»·PEaware :: UAL178 KSAN-KSBA

UAL178 :: KSAN-KSBA

FLIGHT INFORMATION

Flight Status: Arrived
Operator:
United Airlines
More flights by this operator :: More flights under this callsign
Pilot: David H. (5760)
Aircraft: DEHAVILLAND DASH 8 400
(DH8D)
More flights by this aircraft type
Origin: KSAN San Diego Intl-Lindbergh
United States
Destination: KSBA Santa Barbara Mun
United States
More flights between these airports :: More routes between these airports
Route: +CWARD2 CWARD AVOLS V208 VTU282 KWANG
File this flight plan on PilotEdge
Remarks:
Altitude:
(Current/Filed)
10,000ft
Speed:
(Current/Filed)
350kts
Departed: 13-May-18 07:21 AM
Arrived: 13-May-18 08:07 AM
Distance/Time
Traveled:
167nm/0:46
Distance/Time
To Go:
Arrived

Flight Plot

Page will automatically refresh every two minutes.

Flight plan parsing failed; only flown route is shown


Map Options




Map Legend


Flown Route
Filed Route
Departure Airport
Arrival Airport
Navaid (VOR, NDB)
Fix

Horizontal Profiles

Position Reports

Time Latitude Longitude Heading Altitude Ground
Speed
13-May-18 06:59 32.733261 -117.196011 197 22ft 0kts
13-May-18 07:00 32.733261 -117.196011 197 22ft 0kts
13-May-18 07:01 32.733261 -117.196011 197 22ft 0kts
13-May-18 07:02 32.733261 -117.196011 197 22ft 0kts
13-May-18 07:03 32.733261 -117.196011 197 22ft 0kts
13-May-18 07:04 32.733261 -117.196011 197 22ft 0kts
13-May-18 07:05 32.733261 -117.196011 197 22ft 0kts
13-May-18 07:06 32.733261 -117.196011 197 22ft 0kts
13-May-18 07:07 32.733261 -117.196011 197 22ft 0kts
13-May-18 07:08 32.733261 -117.196011 197 22ft 0kts
13-May-18 07:09 32.733261 -117.196011 197 22ft 0kts
13-May-18 07:10 32.733261 -117.196011 197 22ft 0kts
13-May-18 07:11 32.733261 -117.196011 197 22ft 0kts
13-May-18 07:12 32.733261 -117.196011 197 22ft 0kts
13-May-18 07:13 32.733675 -117.195920 178 22ft 2kts
13-May-18 07:14 32.734061 -117.196314 90 22ft 1kts
13-May-18 07:15 32.734061 -117.196314 90 22ft 0kts
13-May-18 07:16 32.734061 -117.196314 90 22ft 0kts
13-May-18 07:17 32.733016 -117.191750 104 22ft 24kts
13-May-18 07:18 32.731046 -117.183677 106 22ft 23kts
13-May-18 07:19 32.729805 -117.178498 106 22ft 0kts
13-May-18 07:20 32.729573 -117.177517 104 22ft 0kts
13-May-18 07:21 32.730983 -117.179050 286 22ft 73kts
13-May-18 07:22 32.745609 -117.219841 299 1774ft 155kts
13-May-18 07:23 32.771170 -117.266951 300 4248ft 182kts
13-May-18 07:24 32.802500 -117.323841 305 5958ft 241kts
13-May-18 07:25 32.844182 -117.388137 307 7879ft 251kts
13-May-18 07:26 32.886181 -117.452547 308 7974ft 257kts
13-May-18 07:27 32.928959 -117.519091 307 7968ft 259kts
13-May-18 07:28 32.970062 -117.583542 305 7941ft 247kts
13-May-18 07:29 33.010758 -117.646806 304 7993ft 247kts
13-May-18 07:30 33.052881 -117.712785 305 7960ft 254kts
13-May-18 07:31 33.102408 -117.769494 319 8011ft 254kts
13-May-18 07:32 33.155852 -117.823290 319 8124ft 252kts
13-May-18 07:33 33.214733 -117.866808 344 8078ft 255kts
13-May-18 07:34 33.284897 -117.884597 346 8066ft 258kts
13-May-18 07:35 33.353111 -117.907571 320 8097ft 257kts
13-May-18 07:36 33.373836 -117.986211 271 8079ft 255kts
13-May-18 07:37 33.368822 -118.071483 264 8047ft 255kts
13-May-18 07:38 33.360444 -118.154057 262 8076ft 253kts
13-May-18 07:39 33.352791 -118.235381 266 8094ft 251kts
13-May-18 07:40 33.361744 -118.318111 281 8092ft 253kts
13-May-18 07:41 33.372945 -118.400476 280 8097ft 254kts
13-May-18 07:42 33.410095 -118.469545 308 8034ft 261kts
13-May-18 07:43 33.455898 -118.534819 308 7989ft 260kts
13-May-18 07:44 33.501619 -118.599966 309 7970ft 256kts
13-May-18 07:45 33.546378 -118.663981 309 7971ft 254kts
13-May-18 07:46 33.591052 -118.727979 308 7977ft 252kts
13-May-18 07:47 33.635632 -118.792036 307 7977ft 249kts
13-May-18 07:48 33.679142 -118.854583 307 8001ft 248kts
13-May-18 07:49 33.723073 -118.917601 308 7993ft 249kts
13-May-18 07:50 33.766942 -118.981366 311 8015ft 253kts
13-May-18 07:51 33.822002 -119.034475 320 8006ft 256kts
13-May-18 07:52 33.876694 -119.087931 320 7996ft 253kts
13-May-18 07:53 33.924449 -119.137451 318 7986ft 253kts
13-May-18 07:54 33.977234 -119.189478 320 8000ft 253kts
13-May-18 07:55 34.031108 -119.242468 320 7935ft 255kts
13-May-18 07:56 34.086005 -119.295973 320 6939ft 258kts
13-May-18 07:57 34.137523 -119.346009 320 5782ft 254kts
13-May-18 07:58 34.190494 -119.398670 321 4299ft 251kts
13-May-18 07:59 34.238930 -119.445079 320 3991ft 209kts
13-May-18 08:00 34.281693 -119.484800 320 3985ft 201kts
13-May-18 08:01 34.328311 -119.528128 322 4013ft 219kts
13-May-18 08:02 34.358799 -119.589715 286 3168ft 249kts
13-May-18 08:03 34.375894 -119.666632 283 2171ft 227kts
13-May-18 08:04 34.394714 -119.733760 296 1557ft 191kts
13-May-18 08:05 34.413870 -119.780326 294 1119ft 149kts
13-May-18 08:06 34.426176 -119.820428 278 388ft 129kts
13-May-18 08:07 34.426646 -119.846144 121 17ft 0kts
13-May-18 08:08 34.426645 -119.846143 121 17ft 0kts
13-May-18 08:09 34.426645 -119.841737 88 17ft 23kts
13-May-18 08:10 34.425767 -119.837707 93 17ft 2kts
13-May-18 08:11 34.425720 -119.837135 97 17ft 0kts
13-May-18 08:12 34.425720 -119.837135 97 17ft 0kts
13-May-18 08:13 34.425720 -119.837135 97 17ft 0kts

Navigation Log

Ident Type
Flight plan parsing failed, navigation log unavailable